createdAt,value
2023-01-10T00:00:03.572Z,86
2023-01-10T00:03:03.706Z,86
2023-01-10T00:06:03.508Z,86
2023-01-10T00:09:03.445Z,86
2023-01-10T00:12:03.495Z,86
2023-01-10T00:15:03.577Z,86
2023-01-10T00:18:03.468Z,86
2023-01-10T00:21:03.592Z,86
2023-01-10T00:24:03.795Z,86
2023-01-10T00:27:03.510Z,86
2023-01-10T00:30:03.620Z,86
2023-01-10T00:33:03.539Z,86
2023-01-10T00:36:03.539Z,85.9
2023-01-10T00:39:03.552Z,85.9
2023-01-10T00:42:03.569Z,85.9
2023-01-10T00:45:03.487Z,85.9
2023-01-10T00:48:03.518Z,85.9
2023-01-10T00:51:03.710Z,85.9
2023-01-10T00:54:03.534Z,85.9
2023-01-10T00:57:03.551Z,85.9
2023-01-10T01:00:03.748Z,85.9
2023-01-10T01:03:03.622Z,85.9
2023-01-10T01:06:03.440Z,86
2023-01-10T01:09:03.463Z,86
2023-01-10T01:12:03.490Z,85.8
2023-01-10T01:15:03.484Z,85.8
2023-01-10T01:18:03.514Z,85.8
2023-01-10T01:21:03.510Z,85.9
2023-01-10T01:24:03.467Z,85.9
2023-01-10T01:27:03.543Z,85.9
2023-01-10T01:30:03.549Z,85.9
2023-01-10T01:33:03.777Z,85.9
2023-01-10T01:36:03.700Z,85.8
2023-01-10T01:39:03.414Z,85.8
2023-01-10T01:42:03.477Z,85.8
2023-01-10T01:45:03.536Z,85.9
2023-01-10T01:48:03.418Z,85.9
2023-01-10T01:51:03.487Z,85.9
2023-01-10T01:54:03.457Z,85.9
2023-01-10T01:57:03.540Z,86
2023-01-10T02:00:03.498Z,86
2023-01-10T02:03:05.840Z,86
2023-01-10T02:06:03.567Z,86
2023-01-10T02:09:03.470Z,86
2023-01-10T02:12:03.443Z,86
2023-01-10T02:15:03.485Z,86
2023-01-10T02:18:03.488Z,86.1
2023-01-10T02:21:03.468Z,86.1
2023-01-10T02:24:03.471Z,86.1
2023-01-10T02:27:03.472Z,86.1
2023-01-10T02:30:03.527Z,86.1
2023-01-10T02:33:08.032Z,86.1
2023-01-10T02:36:03.486Z,86.1
2023-01-10T02:39:03.794Z,86.1
2023-01-10T02:42:03.445Z,86.1
2023-01-10T02:45:03.500Z,86.1
2023-01-10T02:48:03.554Z,86.1
2023-01-10T02:51:03.518Z,86.1
2023-01-10T02:54:03.494Z,86.1
2023-01-10T02:57:03.415Z,86.4
2023-01-10T03:00:03.596Z,86.4
2023-01-10T03:03:03.479Z,86.4
2023-01-10T03:06:03.453Z,86.4
2023-01-10T03:09:03.414Z,86.4
2023-01-10T03:12:03.652Z,86.4
2023-01-10T03:15:03.557Z,86.5
2023-01-10T03:18:03.568Z,86.5
2023-01-10T03:21:03.487Z,86.5
2023-01-10T03:24:03.541Z,86.5
2023-01-10T03:27:03.561Z,86.5
2023-01-10T03:30:03.533Z,86.6
2023-01-10T03:33:03.519Z,86.6
2023-01-10T03:36:03.548Z,86.6
2023-01-10T03:39:03.494Z,86.8
2023-01-10T03:42:03.426Z,86.8
2023-01-10T03:45:03.544Z,86.8
2023-01-10T03:48:03.529Z,86.8
2023-01-10T03:51:03.489Z,86.8
2023-01-10T03:54:03.524Z,86.7
2023-01-10T03:57:05.249Z,86.7
2023-01-10T04:00:03.546Z,86.7
2023-01-10T04:03:03.513Z,86.7
2023-01-10T04:06:03.502Z,87.2
2023-01-10T04:09:03.457Z,87.2
2023-01-10T04:12:03.507Z,87.2
2023-01-10T04:15:03.502Z,87.2
2023-01-10T04:18:03.617Z,87.2
2023-01-10T04:21:03.470Z,87.8
2023-01-10T04:24:03.523Z,87.8
2023-01-10T04:27:03.689Z,87.8
2023-01-10T04:30:03.633Z,87.8
2023-01-10T04:33:03.457Z,87.7
2023-01-10T04:36:03.674Z,87.7
2023-01-10T04:39:03.506Z,87.7
2023-01-10T04:42:03.443Z,87.7
2023-01-10T04:45:03.579Z,87.7
2023-01-10T04:48:03.741Z,87.2
2023-01-10T04:51:03.561Z,87.2
2023-01-10T04:54:03.460Z,87
2023-01-10T04:57:03.496Z,87
2023-01-10T05:00:03.521Z,87
2023-01-10T05:03:04.143Z,87
2023-01-10T05:06:03.408Z,86.8
2023-01-10T05:09:03.506Z,86.8
2023-01-10T05:12:03.444Z,86.8
2023-01-10T05:15:03.612Z,86.8
2023-01-10T05:18:03.469Z,86.8
2023-01-10T05:21:03.490Z,86.8
2023-01-10T05:24:03.522Z,86.8
2023-01-10T05:27:03.496Z,86.5
2023-01-10T05:30:03.509Z,86.5
2023-01-10T05:33:03.546Z,86.5
2023-01-10T05:36:03.490Z,86.5
2023-01-10T05:39:03.450Z,86.5
2023-01-10T05:42:03.464Z,86.4
2023-01-10T05:45:03.522Z,86.5
2023-01-10T05:48:03.505Z,86.5
2023-01-10T05:51:03.510Z,86.5
2023-01-10T05:54:03.546Z,86.5
2023-01-10T05:57:03.700Z,86.5
2023-01-10T06:00:05.865Z,86.5
2023-01-10T06:03:03.836Z,86.2
2023-01-10T06:06:03.566Z,86.2
2023-01-10T06:09:03.451Z,86.2
2023-01-10T06:12:03.590Z,86.2
2023-01-10T06:15:03.503Z,86.2
2023-01-10T06:18:03.506Z,86.2
2023-01-10T06:21:03.535Z,86.2
2023-01-10T06:24:03.506Z,86.2
2023-01-10T06:27:03.413Z,86.2
2023-01-10T06:30:03.625Z,86.2
2023-01-10T06:33:03.516Z,86
2023-01-10T06:36:03.548Z,86
2023-01-10T06:39:03.428Z,86
2023-01-10T06:42:03.483Z,86
2023-01-10T06:45:03.481Z,85.9
2023-01-10T06:48:03.578Z,85.9
2023-01-10T06:51:03.485Z,85.9
2023-01-10T06:54:03.595Z,86
2023-01-10T06:57:03.481Z,86
2023-01-10T07:00:03.577Z,86
2023-01-10T07:03:03.503Z,86
2023-01-10T07:06:03.484Z,86
2023-01-10T07:09:03.521Z,86
2023-01-10T07:12:03.488Z,86
2023-01-10T07:15:03.554Z,86.1
2023-01-10T07:18:03.449Z,86.1
2023-01-10T07:21:03.473Z,86.1
2023-01-10T07:24:05.371Z,86.1
2023-01-10T07:27:03.534Z,86.1
2023-01-10T07:30:03.646Z,85.9
2023-01-10T07:33:03.584Z,85.9
2023-01-10T07:36:03.700Z,85.8
2023-01-10T07:39:03.543Z,85.8
2023-01-10T07:42:03.668Z,85.8
2023-01-10T07:45:03.617Z,85.7
2023-01-10T07:48:03.816Z,85.7
2023-01-10T07:51:05.358Z,85.7
2023-01-10T07:54:03.530Z,85.7
2023-01-10T07:57:03.478Z,85.7
2023-01-10T08:00:03.680Z,85.7
2023-01-10T08:03:03.966Z,85.8
2023-01-10T08:06:03.593Z,85.8
2023-01-10T08:09:03.629Z,85.8
2023-01-10T08:12:03.560Z,85.8
2023-01-10T08:15:03.650Z,85.8
2023-01-10T08:18:07.025Z,85.8
2023-01-10T08:21:03.521Z,85.8
2023-01-10T08:24:03.500Z,85.8
2023-01-10T08:27:03.533Z,85.8
2023-01-10T08:30:03.598Z,85.8
2023-01-10T08:33:03.618Z,85.8
2023-01-10T08:36:03.555Z,85.7
2023-01-10T08:39:03.592Z,85.7
2023-01-10T08:42:03.600Z,85.7
2023-01-10T08:45:03.539Z,85.7
2023-01-10T08:48:03.575Z,85.7
2023-01-10T08:51:03.545Z,85.7
2023-01-10T08:54:03.623Z,85.7
2023-01-10T08:57:03.840Z,85.7
2023-01-10T09:00:03.611Z,85.6
2023-01-10T09:03:03.815Z,85.6
2023-01-10T09:06:03.615Z,85.6
2023-01-10T09:09:03.540Z,85.6
2023-01-10T09:12:03.791Z,85.6
2023-01-10T09:15:03.730Z,85.6
2023-01-10T09:18:03.598Z,85.6
2023-01-10T09:21:03.612Z,85.6
2023-01-10T09:24:03.567Z,85.6
2023-01-10T09:27:03.503Z,85.7
2023-01-10T09:30:03.599Z,85.7
2023-01-10T09:33:03.582Z,85.7
2023-01-10T09:36:03.522Z,85.7
2023-01-10T09:39:03.552Z,85.7
2023-01-10T09:42:03.537Z,85.7
2023-01-10T09:45:03.587Z,85.4
2023-01-10T09:48:03.709Z,85.4
2023-01-10T09:51:03.551Z,85.4
2023-01-10T09:54:15.088Z,85.7
2023-01-10T09:57:03.587Z,85.7
2023-01-10T10:00:03.568Z,85.7
2023-01-10T10:03:03.560Z,85.7
2023-01-10T10:06:14.873Z,85.7
2023-01-10T10:09:07.165Z,85.7
2023-01-10T10:12:03.557Z,85.7
2023-01-10T10:15:03.599Z,85.7
2023-01-10T10:18:03.544Z,84.5
2023-01-10T10:21:03.721Z,84.5
2023-01-10T10:24:03.615Z,84.5
2023-01-10T10:27:03.605Z,83.9
2023-01-10T10:30:03.573Z,83.9
2023-01-10T10:33:03.439Z,83.9
2023-01-10T10:36:03.606Z,83.9
2023-01-10T10:39:03.632Z,83.9
2023-01-10T10:42:03.581Z,83.9
2023-01-10T10:45:03.521Z,83.9
2023-01-10T10:48:03.605Z,83.9
2023-01-10T10:51:03.580Z,83.9
2023-01-10T10:54:03.716Z,83.9
2023-01-10T10:57:03.562Z,83.9
2023-01-10T11:00:03.703Z,83.9
2023-01-10T11:03:03.582Z,83.9
2023-01-10T11:06:03.500Z,83.9
2023-01-10T11:09:03.567Z,83.9
2023-01-10T11:12:03.579Z,83.9
2023-01-10T11:15:03.543Z,83.9
2023-01-10T11:18:03.588Z,83.9
2023-01-10T11:21:03.541Z,83.9
2023-01-10T11:24:03.607Z,83.3
2023-01-10T11:27:03.680Z,83.3
2023-01-10T11:30:03.610Z,83.3
2023-01-10T11:33:03.610Z,83.3
2023-01-10T11:36:03.606Z,83.3
2023-01-10T11:39:03.545Z,83.3
2023-01-10T11:42:03.553Z,83.3
2023-01-10T11:45:03.526Z,83.3
2023-01-10T11:48:03.670Z,83.3
2023-01-10T11:51:03.520Z,83.3
2023-01-10T11:54:03.632Z,83.3
2023-01-10T11:57:03.558Z,83.3
2023-01-10T12:00:03.894Z,83.3
2023-01-10T12:03:03.702Z,83.3
2023-01-10T12:06:03.569Z,83.3
2023-01-10T12:09:03.599Z,83.3
2023-01-10T12:12:03.571Z,83.3
2023-01-10T12:15:03.515Z,82.5
2023-01-10T12:18:03.773Z,82.5
2023-01-10T12:21:03.573Z,82.5
2023-01-10T12:24:03.524Z,82.5
2023-01-10T12:27:03.575Z,82.5
2023-01-10T12:30:03.650Z,82.5
2023-01-10T12:33:03.768Z,82.5
2023-01-10T12:36:03.602Z,82.5
2023-01-10T12:39:03.559Z,82.5
2023-01-10T12:42:03.678Z,82.5
2023-01-10T12:45:03.516Z,82.5
2023-01-10T12:48:03.597Z,82.5
2023-01-10T12:51:03.593Z,82.5
2023-01-10T12:54:03.612Z,82.5
2023-01-10T12:57:03.538Z,82.5
2023-01-10T13:00:03.696Z,82.5
2023-01-10T13:03:03.811Z,82.5
2023-01-10T13:06:03.664Z,82.5
2023-01-10T13:09:03.487Z,82.5
2023-01-10T13:12:03.593Z,82.5
2023-01-10T13:15:03.623Z,82
2023-01-10T13:18:03.564Z,81.8
2023-01-10T13:21:03.524Z,81.8
2023-01-10T13:24:03.563Z,81.8
2023-01-10T13:27:03.535Z,81.8
2023-01-10T13:30:03.761Z,81.8
2023-01-10T13:33:03.659Z,81.8
2023-01-10T13:36:03.615Z,81.8
2023-01-10T13:39:03.557Z,81.8
2023-01-10T13:42:03.637Z,81.8
2023-01-10T13:45:03.668Z,81.8
2023-01-10T13:48:03.633Z,81.8
2023-01-10T13:51:03.477Z,81.8
2023-01-10T13:54:03.625Z,81.8
2023-01-10T13:57:03.673Z,81.8
2023-01-10T14:00:03.647Z,81.8
2023-01-10T14:03:03.495Z,81.8
2023-01-10T14:06:03.563Z,81.8
2023-01-10T14:09:03.537Z,81.8
2023-01-10T14:12:03.597Z,78.9
2023-01-10T14:15:03.582Z,78.9
2023-01-10T14:18:03.574Z,78.9
2023-01-10T14:21:03.581Z,78.9
2023-01-10T14:24:03.555Z,78.9
2023-01-10T14:27:03.545Z,78.9
2023-01-10T14:30:03.924Z,78.9
2023-01-10T14:33:03.545Z,78.9
2023-01-10T14:36:03.854Z,78.9
2023-01-10T14:39:03.558Z,78.9
2023-01-10T14:42:03.605Z,78.9
2023-01-10T14:45:03.668Z,78.9
2023-01-10T14:48:03.622Z,78.9
2023-01-10T14:51:03.570Z,79
2023-01-10T14:54:03.657Z,79
2023-01-10T14:57:03.560Z,79
2023-01-10T15:00:03.750Z,79
2023-01-10T15:03:03.449Z,79
2023-01-10T15:06:03.594Z,79.8
2023-01-10T15:09:03.770Z,79.8
2023-01-10T15:12:03.945Z,79.8
2023-01-10T15:15:03.708Z,79.8
2023-01-10T15:18:03.698Z,79.8
2023-01-10T15:21:03.585Z,79.8
2023-01-10T15:24:03.581Z,79.8
2023-01-10T15:27:03.660Z,79.8
2023-01-10T15:30:03.743Z,79.8
2023-01-10T15:33:03.458Z,80.4
2023-01-10T15:36:03.457Z,80.4
2023-01-10T15:39:03.639Z,80.4
2023-01-10T15:42:03.495Z,80.4
2023-01-10T15:45:03.553Z,80.4
2023-01-10T15:48:03.630Z,80.4
2023-01-10T15:51:03.588Z,80.4
2023-01-10T15:54:03.636Z,80.4
2023-01-10T15:57:03.505Z,80.4
2023-01-10T16:00:03.724Z,80.4
2023-01-10T16:03:03.828Z,79.7
2023-01-10T16:06:03.746Z,79.7
2023-01-10T16:09:03.449Z,79.7
2023-01-10T16:12:03.527Z,79.7
2023-01-10T16:15:03.565Z,79.7
2023-01-10T16:18:03.544Z,79.7
2023-01-10T16:21:03.479Z,79.7
2023-01-10T16:24:03.516Z,79.7
2023-01-10T16:27:03.496Z,79.7
2023-01-10T16:30:03.806Z,79.7
2023-01-10T16:33:03.531Z,79.7
2023-01-10T16:36:03.469Z,79.7
2023-01-10T16:39:03.454Z,79.7
2023-01-10T16:42:03.538Z,79.7
2023-01-10T16:45:03.614Z,79.7
2023-01-10T16:48:03.499Z,79.7
2023-01-10T16:51:03.537Z,79.7
2023-01-10T16:54:03.561Z,79.7
2023-01-10T16:57:03.633Z,79.3
2023-01-10T17:00:03.477Z,79.2
2023-01-10T17:03:03.452Z,79.2
2023-01-10T17:06:03.497Z,79.2
2023-01-10T17:09:03.417Z,79.2
2023-01-10T17:12:03.449Z,79.2
2023-01-10T17:15:03.527Z,79.2
2023-01-10T17:18:03.504Z,79.2
2023-01-10T17:21:03.503Z,79.2
2023-01-10T17:24:03.517Z,79.2
2023-01-10T17:27:03.467Z,79.2
2023-01-10T17:30:03.593Z,78.6
2023-01-10T17:33:03.472Z,78.6
2023-01-10T17:36:03.463Z,78.6
2023-01-10T17:39:03.460Z,78.6
2023-01-10T17:42:03.406Z,78.6
2023-01-10T17:45:03.752Z,78.6
2023-01-10T17:48:03.410Z,78.6
2023-01-10T17:51:03.529Z,77.7
2023-01-10T17:54:03.632Z,77.7
2023-01-10T17:57:03.440Z,77.4
2023-01-10T18:00:03.604Z,77.4
2023-01-10T18:03:03.713Z,77.4
2023-01-10T18:06:05.521Z,77.4
2023-01-10T18:09:03.425Z,77.5
2023-01-10T18:12:03.500Z,77.5
2023-01-10T18:15:03.486Z,77.5
2023-01-10T18:18:03.509Z,77.5
2023-01-10T18:21:03.541Z,77.5
2023-01-10T18:24:03.546Z,77.5
2023-01-10T18:27:03.439Z,77.5
2023-01-10T18:30:03.511Z,77.5
2023-01-10T18:33:03.465Z,77.5
2023-01-10T18:36:03.518Z,77.2
2023-01-10T18:39:03.464Z,77.2
2023-01-10T18:42:03.506Z,77.2
2023-01-10T18:45:03.696Z,77.2
2023-01-10T18:48:03.497Z,76.8
2023-01-10T18:51:03.517Z,76.8
2023-01-10T18:54:03.683Z,76.8
2023-01-10T18:57:03.531Z,76.8
2023-01-10T19:00:03.544Z,76.8
2023-01-10T19:03:03.470Z,76.8
2023-01-10T19:06:03.626Z,76.8
2023-01-10T19:09:03.803Z,76.8
2023-01-10T19:12:03.509Z,76.7
2023-01-10T19:15:03.712Z,76.7
2023-01-10T19:18:03.478Z,76.7
2023-01-10T19:21:03.554Z,76.7
2023-01-10T19:24:03.980Z,76.7
2023-01-10T19:27:03.492Z,76.7
2023-01-10T19:30:03.570Z,76.7
2023-01-10T19:33:03.482Z,76.7
2023-01-10T19:36:03.486Z,76.7
2023-01-10T19:39:03.605Z,76.6
2023-01-10T19:42:03.622Z,76.6
2023-01-10T19:45:03.507Z,76.6
2023-01-10T19:48:03.480Z,76.5
2023-01-10T19:51:03.491Z,76.5
2023-01-10T19:54:03.466Z,76.5
2023-01-10T19:57:03.516Z,76.5
2023-01-10T20:00:03.645Z,76.5
2023-01-10T20:03:03.810Z,76.5
2023-01-10T20:06:03.466Z,76.5
2023-01-10T20:09:03.705Z,76.2
2023-01-10T20:12:03.493Z,76.2
2023-01-10T20:15:03.601Z,76.2
2023-01-10T20:18:03.578Z,76.2
2023-01-10T20:21:03.483Z,76.2
2023-01-10T20:24:03.463Z,76.2
2023-01-10T20:27:03.420Z,76.2
2023-01-10T20:30:03.463Z,76.2
2023-01-10T20:33:03.499Z,76.2
2023-01-10T20:36:03.436Z,76.2
2023-01-10T20:39:03.498Z,76.2
2023-01-10T20:42:03.536Z,76.9
2023-01-10T20:45:03.518Z,76.9
2023-01-10T20:48:03.570Z,76.9
2023-01-10T20:51:03.449Z,77.5
2023-01-10T20:54:03.541Z,77.5
2023-01-10T20:57:03.536Z,77.5
2023-01-10T21:00:03.791Z,77.5
2023-01-10T21:03:03.720Z,77.5
2023-01-10T21:06:03.462Z,77.5
2023-01-10T21:09:03.635Z,77.5
2023-01-10T21:12:27.493Z,77.5
2023-01-10T21:15:03.531Z,81
2023-01-10T21:18:03.431Z,81
2023-01-10T21:21:03.578Z,81
2023-01-10T21:24:03.435Z,81.5
2023-01-10T21:27:03.583Z,81.5
2023-01-10T21:30:03.472Z,81.5
2023-01-10T21:33:03.445Z,81.5
2023-01-10T21:36:03.490Z,81.5
2023-01-10T21:39:03.508Z,81.5
2023-01-10T21:42:03.490Z,81.5
2023-01-10T21:45:03.614Z,81.3
2023-01-10T21:48:03.569Z,81.3
2023-01-10T21:51:03.482Z,81
2023-01-10T21:54:03.623Z,81
2023-01-10T21:57:03.440Z,81
2023-01-10T22:00:03.517Z,81
2023-01-10T22:03:03.457Z,81
2023-01-10T22:06:03.560Z,80.5
2023-01-10T22:09:03.472Z,80.5
2023-01-10T22:12:03.455Z,80.5
2023-01-10T22:15:03.528Z,80.5
2023-01-10T22:18:03.469Z,80.5
2023-01-10T22:21:03.670Z,80.5
2023-01-10T22:24:03.553Z,80.2
2023-01-10T22:27:03.546Z,80.2
2023-01-10T22:30:03.485Z,80.2
2023-01-10T22:33:03.476Z,80.2
2023-01-10T22:36:03.658Z,80.2
2023-01-10T22:39:03.510Z,80.2
2023-01-10T22:42:03.478Z,81.3
2023-01-10T22:45:03.548Z,81.3
2023-01-10T22:48:03.574Z,81.3
2023-01-10T22:51:03.522Z,81.3
2023-01-10T22:54:03.514Z,81.3
2023-01-10T22:57:03.455Z,81.1
2023-01-10T23:00:04.355Z,81.1
2023-01-10T23:03:03.280Z,81.1
2023-01-10T23:06:03.335Z,81.1
2023-01-10T23:09:03.305Z,80.9
2023-01-10T23:12:03.416Z,80.9
2023-01-10T23:15:03.267Z,80.9
2023-01-10T23:18:03.279Z,80.9
2023-01-10T23:21:03.343Z,80.9
2023-01-10T23:24:03.509Z,80.4
2023-01-10T23:27:03.368Z,80.4
2023-01-10T23:30:03.331Z,80.4
2023-01-10T23:33:03.464Z,80.4
2023-01-10T23:36:03.312Z,80.4
2023-01-10T23:39:03.378Z,80.4
2023-01-10T23:42:03.428Z,80.4
2023-01-10T23:45:03.311Z,80.4
2023-01-10T23:48:03.485Z,80.4
2023-01-10T23:51:03.274Z,80.4
2023-01-10T23:54:03.296Z,80.4
2023-01-10T23:57:03.294Z,80.4
